createdAt,value
2018-11-04T00:00:08.122Z,3.35
2018-11-04T00:01:07.963Z,3.35
2018-11-04T00:02:07.955Z,3.39
2018-11-04T00:03:07.944Z,3.34
2018-11-04T00:04:08.000Z,3.54
2018-11-04T00:05:07.955Z,3.49
2018-11-04T00:06:07.906Z,3.41
2018-11-04T00:07:07.896Z,3.37
2018-11-04T00:08:07.844Z,3.44
2018-11-04T00:09:07.919Z,3.39
2018-11-04T00:10:07.916Z,3.45
2018-11-04T00:11:07.867Z,3.53
2018-11-04T00:12:07.840Z,3.46
2018-11-04T00:13:07.889Z,3.50
2018-11-04T00:14:07.878Z,3.52
2018-11-04T00:15:07.812Z,3.64
2018-11-04T00:16:07.801Z,3.63
2018-11-04T00:17:08.926Z,3.63
2018-11-04T00:18:07.741Z,3.70
2018-11-04T00:19:07.817Z,3.64
2018-11-04T00:20:07.770Z,3.67
2018-11-04T00:21:07.750Z,3.68
2018-11-04T00:22:07.742Z,3.70
2018-11-04T00:23:07.732Z,3.71
2018-11-04T00:24:07.933Z,3.68
2018-11-04T00:25:07.715Z,3.75
2018-11-04T00:26:07.693Z,3.77
2018-11-04T00:27:07.645Z,3.68
2018-11-04T00:28:07.685Z,3.67
2018-11-04T00:29:07.698Z,3.68
2018-11-04T00:30:07.659Z,3.74
2018-11-04T00:31:07.643Z,3.72
2018-11-04T00:32:07.632Z,3.72
2018-11-04T00:33:07.638Z,3.67
2018-11-04T00:34:07.639Z,3.75
2018-11-04T00:35:07.596Z,3.84
2018-11-04T00:36:07.591Z,3.81
2018-11-04T00:37:07.571Z,3.84
2018-11-04T00:38:07.521Z,3.90
2018-11-04T00:39:07.590Z,3.93
2018-11-04T00:40:07.536Z,3.92
2018-11-04T00:41:07.533Z,3.92
2018-11-04T00:42:07.520Z,3.89
2018-11-04T00:43:07.513Z,3.93
2018-11-04T00:44:07.472Z,3.99
2018-11-04T00:45:07.537Z,3.96
2018-11-04T00:46:07.481Z,3.89
2018-11-04T00:47:07.433Z,3.90
2018-11-04T00:48:07.462Z,3.90
2018-11-04T00:49:07.489Z,3.90
2018-11-04T00:50:07.434Z,3.81
2018-11-04T00:51:07.427Z,3.84
2018-11-04T00:52:07.422Z,3.82
2018-11-04T00:53:07.360Z,3.92
2018-11-04T00:54:07.364Z,3.93
2018-11-04T00:55:07.427Z,3.96
2018-11-04T00:56:07.385Z,3.98
2018-11-04T00:57:07.314Z,3.96
2018-11-04T00:58:07.346Z,3.93
2018-11-04T00:59:07.336Z,3.96
2018-11-04T01:00:07.365Z,4.04
2018-11-04T01:01:07.296Z,4.08
2018-11-04T01:02:07.342Z,3.99
2018-11-04T01:03:07.434Z,4.10
2018-11-04T01:04:07.316Z,4.11
2018-11-04T01:05:07.273Z,4.18
2018-11-04T01:06:07.267Z,4.14
2018-11-04T01:07:07.219Z,4.08
2018-11-04T01:08:07.255Z,4.20
2018-11-04T01:09:07.287Z,4.25
2018-11-04T01:10:07.219Z,4.21
2018-11-04T01:11:07.214Z,4.18
2018-11-04T01:12:07.209Z,4.20
2018-11-04T01:13:07.227Z,4.25
2018-11-04T01:14:07.128Z,4.29
2018-11-04T01:15:07.163Z,4.29
2018-11-04T01:16:07.152Z,4.26
2018-11-04T01:17:07.232Z,4.24
2018-11-04T01:18:07.135Z,4.25
2018-11-04T01:19:07.125Z,4.28
2018-11-04T01:20:07.067Z,4.43
2018-11-04T01:21:07.141Z,4.43
2018-11-04T01:22:07.131Z,4.38
2018-11-04T01:23:07.037Z,4.38
2018-11-04T01:24:07.073Z,4.46
2018-11-04T01:25:07.049Z,4.46
2018-11-04T01:26:06.995Z,4.47
2018-11-04T01:27:07.007Z,4.54
2018-11-04T01:28:07.021Z,4.50
2018-11-04T01:29:07.022Z,4.57
2018-11-04T01:30:07.001Z,4.47
2018-11-04T01:31:06.983Z,4.56
2018-11-04T01:32:07.034Z,4.61
2018-11-04T01:33:06.978Z,4.62
2018-11-04T01:34:06.956Z,4.56
2018-11-04T01:35:06.895Z,4.65
2018-11-04T01:36:06.884Z,4.59
2018-11-04T01:37:06.965Z,4.67
2018-11-04T01:38:06.914Z,4.67
2018-11-04T01:39:06.899Z,4.71
2018-11-04T01:40:06.894Z,4.72
2018-11-04T01:41:06.836Z,4.84
2018-11-04T01:42:06.867Z,4.80
2018-11-04T01:43:06.855Z,4.84
2018-11-04T01:44:06.798Z,4.94
2018-11-04T01:45:06.827Z,4.90
2018-11-04T01:46:06.801Z,5.04
2018-11-04T01:47:06.794Z,5.08
2018-11-04T01:48:06.801Z,5.12
2018-11-04T01:49:06.785Z,5.05
2018-11-04T01:50:06.775Z,5.17
2018-11-04T01:51:06.797Z,5.19
2018-11-04T01:52:06.768Z,5.23
2018-11-04T01:53:06.750Z,5.20
2018-11-04T01:54:06.776Z,5.17
2018-11-04T01:55:06.722Z,5.23
2018-11-04T01:56:06.824Z,5.09
2018-11-04T01:57:06.656Z,5.17
2018-11-04T01:58:06.724Z,5.22
2018-11-04T01:59:06.680Z,5.19
2018-11-04T02:00:06.814Z,5.22
2018-11-04T02:01:06.666Z,5.19
2018-11-04T02:02:06.656Z,5.22
2018-11-04T02:03:06.674Z,5.29
2018-11-04T02:04:06.637Z,5.24
2018-11-04T02:05:06.635Z,5.32
2018-11-04T02:06:06.713Z,5.30
2018-11-04T02:07:06.648Z,5.29
2018-11-04T02:08:06.535Z,5.27
2018-11-04T02:09:06.585Z,5.33
2018-11-04T02:10:06.612Z,5.37
2018-11-04T02:11:06.516Z,5.41
2018-11-04T02:12:06.628Z,5.30
2018-11-04T02:13:06.489Z,5.37
2018-11-04T02:14:06.523Z,5.42
2018-11-04T02:15:06.515Z,5.40
2018-11-04T02:16:06.524Z,5.44
2018-11-04T02:17:06.541Z,5.45
2018-11-04T02:18:06.473Z,5.51
2018-11-04T02:19:06.422Z,5.52
2018-11-04T02:20:06.467Z,5.47
2018-11-04T02:21:06.446Z,5.45
2018-11-04T02:22:06.482Z,5.48
2018-11-04T02:23:06.435Z,5.45
2018-11-04T02:24:06.368Z,5.56
2018-11-04T02:25:06.373Z,5.51
2018-11-04T02:26:06.430Z,5.59
2018-11-04T02:27:06.382Z,5.52
2018-11-04T02:28:06.370Z,5.58
2018-11-04T02:29:06.320Z,5.60
2018-11-04T02:30:06.357Z,5.67
2018-11-04T02:31:06.390Z,5.69
2018-11-04T02:32:06.326Z,5.69
2018-11-04T02:33:06.388Z,5.73
2018-11-04T02:34:06.307Z,5.66
2018-11-04T02:35:06.320Z,5.63
2018-11-04T02:36:06.287Z,5.67
2018-11-04T02:37:06.274Z,5.73
2018-11-04T02:38:06.297Z,5.75
2018-11-04T02:39:06.259Z,5.73
2018-11-04T02:40:06.241Z,5.73
2018-11-04T02:41:06.238Z,5.80
2018-11-04T02:42:06.242Z,5.88
2018-11-04T02:43:06.243Z,5.83
2018-11-04T02:44:06.199Z,5.83
2018-11-04T02:45:06.183Z,5.85
2018-11-04T02:46:06.174Z,5.90
2018-11-04T02:47:06.267Z,5.98
2018-11-04T02:48:06.156Z,5.99
2018-11-04T02:49:06.227Z,5.96
2018-11-04T02:50:06.164Z,5.96
2018-11-04T02:51:06.123Z,5.96
2018-11-04T02:52:06.115Z,5.99
2018-11-04T02:53:06.066Z,6.02
2018-11-04T02:54:06.084Z,5.98
2018-11-04T02:55:06.113Z,5.96
2018-11-04T02:56:06.067Z,5.96
2018-11-04T02:57:06.056Z,6.01
2018-11-04T02:58:06.092Z,6.01
2018-11-04T02:59:06.073Z,6.02
2018-11-04T03:00:06.033Z,6.02
2018-11-04T03:01:06.020Z,6.06
2018-11-04T03:02:06.062Z,6.08
2018-11-04T03:03:06.126Z,5.99
2018-11-04T03:04:05.992Z,6.05
2018-11-04T03:05:05.925Z,5.99
2018-11-04T03:06:05.992Z,5.99
2018-11-04T03:07:05.945Z,6.01
2018-11-04T03:08:05.933Z,6.05
2018-11-04T03:09:05.883Z,5.92
2018-11-04T03:10:05.918Z,6.01
2018-11-04T03:11:05.944Z,6.03
2018-11-04T03:12:05.893Z,6.01
2018-11-04T03:13:05.918Z,5.99
2018-11-04T03:14:05.883Z,6.06
2018-11-04T03:15:05.859Z,6.01
2018-11-04T03:16:05.888Z,6.03
2018-11-04T03:17:05.836Z,5.99
2018-11-04T03:18:05.830Z,6.02
2018-11-04T03:19:05.859Z,6.01
2018-11-04T03:20:05.808Z,6.06
2018-11-04T03:21:05.757Z,6.03
2018-11-04T03:22:05.799Z,6.01
2018-11-04T03:23:05.826Z,6.11
2018-11-04T03:24:05.768Z,6.14
2018-11-04T03:25:05.749Z,6.03
2018-11-04T03:26:05.745Z,6.03
2018-11-04T03:27:05.733Z,6.08
2018-11-04T03:28:05.713Z,6.11
2018-11-04T03:29:05.715Z,6.08
2018-11-04T03:30:05.718Z,6.08
2018-11-04T03:31:05.692Z,6.05
2018-11-04T03:32:05.715Z,6.10
2018-11-04T03:33:05.674Z,6.19
2018-11-04T03:34:05.664Z,6.21
2018-11-04T03:35:05.646Z,6.08
2018-11-04T03:36:05.633Z,6.20
2018-11-04T03:37:05.657Z,6.25
2018-11-04T03:38:05.571Z,6.24
2018-11-04T03:39:05.613Z,6.24
2018-11-04T03:40:05.636Z,6.24
2018-11-04T03:41:05.546Z,6.25
2018-11-04T03:42:05.529Z,6.38
2018-11-04T03:43:05.564Z,6.38
2018-11-04T03:44:05.597Z,6.36
2018-11-04T03:45:05.549Z,6.36
2018-11-04T03:46:05.526Z,6.39
2018-11-04T03:47:05.519Z,6.43
2018-11-04T03:48:05.504Z,6.58
2018-11-04T03:49:05.516Z,6.43
2018-11-04T03:50:05.434Z,6.60
2018-11-04T03:51:05.464Z,6.57
2018-11-04T03:52:05.651Z,6.46
2018-11-04T03:53:05.466Z,6.55
2018-11-04T03:54:05.442Z,6.53
2018-11-04T03:55:05.431Z,6.51
2018-11-04T03:56:05.398Z,6.58
2018-11-04T03:57:05.464Z,6.65
2018-11-04T03:58:05.493Z,6.57
2018-11-04T03:59:05.388Z,6.61
2018-11-04T04:00:05.385Z,6.65
2018-11-04T04:01:05.376Z,6.63
2018-11-04T04:02:05.443Z,6.65
2018-11-04T04:03:05.345Z,6.69
2018-11-04T04:04:05.337Z,6.73
2018-11-04T04:05:05.380Z,6.73
2018-11-04T04:06:05.377Z,6.72
2018-11-04T04:07:05.306Z,6.75
2018-11-04T04:08:05.302Z,6.75
2018-11-04T04:09:05.282Z,6.73
2018-11-04T04:10:05.310Z,6.72
2018-11-04T04:11:05.252Z,6.72
2018-11-04T04:12:05.349Z,6.73
2018-11-04T04:13:05.240Z,6.79
2018-11-04T04:14:05.188Z,6.72
2018-11-04T04:15:05.243Z,6.73
2018-11-04T04:16:05.229Z,6.87
2018-11-04T04:17:05.182Z,6.78
2018-11-04T04:18:05.220Z,6.78
2018-11-04T04:19:05.172Z,6.86
2018-11-04T04:20:05.170Z,6.93
2018-11-04T04:21:05.147Z,6.75
2018-11-04T04:22:05.137Z,6.87
2018-11-04T04:23:05.161Z,6.89
2018-11-04T04:24:05.114Z,6.94
2018-11-04T04:25:05.097Z,6.78
2018-11-04T04:26:05.075Z,6.90
2018-11-04T04:27:05.092Z,6.90
2018-11-04T04:28:05.074Z,6.89
2018-11-04T04:29:05.069Z,6.94
2018-11-04T04:30:05.035Z,6.93
2018-11-04T04:31:05.061Z,6.91
2018-11-04T04:32:05.040Z,6.99
2018-11-04T04:33:05.060Z,6.99
2018-11-04T04:34:05.009Z,6.97
2018-11-04T04:35:04.988Z,7.04
2018-11-04T04:36:05.038Z,7.04
2018-11-04T04:37:04.970Z,7.09
2018-11-04T04:38:04.996Z,7.11
2018-11-04T04:39:04.977Z,7.15
2018-11-04T04:40:04.945Z,7.09
2018-11-04T04:41:04.982Z,7.12
2018-11-04T04:42:04.913Z,7.14
2018-11-04T04:43:04.900Z,7.15
2018-11-04T04:44:04.898Z,7.15
2018-11-04T04:45:04.880Z,7.26
2018-11-04T04:46:04.901Z,7.24
2018-11-04T04:47:04.857Z,7.30
2018-11-04T04:48:04.803Z,7.32
2018-11-04T04:49:04.804Z,7.29
2018-11-04T04:50:04.836Z,7.33
2018-11-04T04:51:04.868Z,7.27
2018-11-04T04:52:04.809Z,7.42
2018-11-04T04:53:04.797Z,7.42
2018-11-04T04:54:04.787Z,7.45
2018-11-04T04:55:04.841Z,7.50
2018-11-04T04:56:04.804Z,7.41
2018-11-04T04:57:04.707Z,7.41
2018-11-04T04:58:04.741Z,7.41
2018-11-04T04:59:04.816Z,7.45
2018-11-04T05:00:04.727Z,7.47
2018-11-04T05:01:04.771Z,7.52
2018-11-04T05:02:04.696Z,7.47
2018-11-04T05:03:04.688Z,7.50
2018-11-04T05:04:04.675Z,7.51
2018-11-04T05:05:04.798Z,7.52
2018-11-04T05:06:04.652Z,7.62
2018-11-04T05:07:04.685Z,7.55
2018-11-04T05:08:04.633Z,7.57
2018-11-04T05:09:04.621Z,7.66
2018-11-04T05:10:04.607Z,7.69
2018-11-04T05:11:04.551Z,7.63
2018-11-04T05:12:04.619Z,7.70
2018-11-04T05:13:04.575Z,7.69
2018-11-04T05:14:04.603Z,7.66
2018-11-04T05:15:04.567Z,7.66
2018-11-04T05:16:04.547Z,7.67
2018-11-04T05:17:04.537Z,7.77
2018-11-04T05:18:04.519Z,7.76
2018-11-04T05:19:04.503Z,7.73
2018-11-04T05:20:04.501Z,7.66
2018-11-04T05:21:04.494Z,7.70
2018-11-04T05:22:04.483Z,7.76
2018-11-04T05:23:04.470Z,7.79
2018-11-04T05:24:04.495Z,7.74
2018-11-04T05:25:04.453Z,7.79
2018-11-04T05:26:04.443Z,7.76
2018-11-04T05:27:04.426Z,7.74
2018-11-04T05:28:04.435Z,7.76
2018-11-04T05:29:04.432Z,7.79
2018-11-04T05:30:04.391Z,7.79
2018-11-04T05:31:04.381Z,7.76
2018-11-04T05:32:04.370Z,7.82
2018-11-04T05:33:04.366Z,7.84
2018-11-04T05:34:04.381Z,7.85
2018-11-04T05:35:04.334Z,7.89
2018-11-04T05:36:04.329Z,7.84
2018-11-04T05:37:04.358Z,7.91
2018-11-04T05:38:04.396Z,7.99
2018-11-04T05:39:04.289Z,7.99
2018-11-04T05:40:04.242Z,7.99
2018-11-04T05:41:04.270Z,7.92
2018-11-04T05:42:04.267Z,8.04
2018-11-04T05:43:04.275Z,8.09
2018-11-04T05:44:04.250Z,8.06
2018-11-04T05:45:04.226Z,8.06
2018-11-04T05:46:04.216Z,8.07
2018-11-04T05:47:04.207Z,8.03
2018-11-04T05:48:04.195Z,8.12
2018-11-04T05:49:04.187Z,8.03
2018-11-04T05:50:04.179Z,8.09
2018-11-04T05:51:04.172Z,8.13
2018-11-04T05:52:04.317Z,8.17
2018-11-04T05:53:04.173Z,8.22
2018-11-04T05:54:04.230Z,8.22
2018-11-04T05:55:04.122Z,8.31
2018-11-04T05:56:04.114Z,8.32
2018-11-04T05:57:04.125Z,8.36
2018-11-04T05:58:04.181Z,8.32
2018-11-04T05:59:04.079Z,8.34
2018-11-04T06:00:04.071Z,8.43
2018-11-04T06:01:04.057Z,8.36
2018-11-04T06:02:04.099Z,8.46
2018-11-04T06:03:04.041Z,8.46
2018-11-04T06:04:03.986Z,8.50
2018-11-04T06:05:04.022Z,8.52
2018-11-04T06:06:04.011Z,8.54
2018-11-04T06:07:04.044Z,8.50
2018-11-04T06:08:04.007Z,8.55
2018-11-04T06:09:03.983Z,8.60
2018-11-04T06:10:03.959Z,8.57
2018-11-04T06:11:03.949Z,8.47
2018-11-04T06:12:03.968Z,8.55
2018-11-04T06:13:03.939Z,8.57
2018-11-04T06:14:03.921Z,8.55
2018-11-04T06:15:03.939Z,8.61
2018-11-04T06:16:03.898Z,8.58
2018-11-04T06:17:03.887Z,8.58
2018-11-04T06:18:03.877Z,8.60
2018-11-04T06:19:03.846Z,8.58
2018-11-04T06:20:03.860Z,8.60
2018-11-04T06:21:03.874Z,8.58
2018-11-04T06:22:03.831Z,8.54
2018-11-04T06:23:03.802Z,8.60
2018-11-04T06:24:03.815Z,8.64
2018-11-04T06:25:03.798Z,8.52
2018-11-04T06:26:03.795Z,8.65
2018-11-04T06:27:03.776Z,8.60
2018-11-04T06:28:03.810Z,8.61
2018-11-04T06:29:03.716Z,8.55
2018-11-04T06:30:03.745Z,8.58
2018-11-04T06:31:03.737Z,8.60
2018-11-04T06:32:03.732Z,8.64
2018-11-04T06:33:03.745Z,8.65
2018-11-04T06:34:03.710Z,8.58
2018-11-04T06:35:03.694Z,8.67
2018-11-04T06:36:03.689Z,8.67
2018-11-04T06:37:03.706Z,8.68
2018-11-04T06:38:03.667Z,8.73
2018-11-04T06:39:03.658Z,8.67
2018-11-04T06:40:03.655Z,8.65
2018-11-04T06:41:03.672Z,8.65
2018-11-04T06:42:03.610Z,8.68
2018-11-04T06:43:03.610Z,8.78
2018-11-04T06:44:03.597Z,8.73
2018-11-04T06:45:03.590Z,8.75
2018-11-04T06:46:03.610Z,8.71
2018-11-04T06:47:03.644Z,8.70
2018-11-04T06:48:03.561Z,8.73
2018-11-04T06:49:03.543Z,8.73
2018-11-04T06:50:03.572Z,8.61
2018-11-04T06:51:03.622Z,8.68
2018-11-04T06:52:03.543Z,8.63
2018-11-04T06:53:03.531Z,8.63
2018-11-04T06:54:03.499Z,8.60
2018-11-04T06:55:03.480Z,8.55
2018-11-04T06:56:03.473Z,8.58
2018-11-04T06:57:03.585Z,8.68
2018-11-04T06:58:03.486Z,8.60
2018-11-04T06:59:03.440Z,8.61
2018-11-04T07:00:03.502Z,8.65
2018-11-04T07:01:03.495Z,8.65
2018-11-04T07:02:03.402Z,8.64
2018-11-04T07:03:03.394Z,8.76
2018-11-04T07:04:03.384Z,8.63
2018-11-04T07:05:03.402Z,8.61
2018-11-04T07:06:03.356Z,8.60
2018-11-04T07:07:03.378Z,8.57
2018-11-04T07:08:03.342Z,8.64
2018-11-04T07:09:03.426Z,8.68
2018-11-04T07:10:03.362Z,8.61
2018-11-04T07:11:03.278Z,8.67
2018-11-04T07:12:03.295Z,8.71
2018-11-04T07:13:03.248Z,8.75
2018-11-04T07:14:03.272Z,8.68
2018-11-04T07:15:03.297Z,8.78
2018-11-04T07:16:03.257Z,8.78
2018-11-04T07:17:03.220Z,8.80
2018-11-04T07:18:03.242Z,8.79
2018-11-04T07:19:03.214Z,8.76
2018-11-04T07:20:03.271Z,8.76
2018-11-04T07:21:03.198Z,8.86
2018-11-04T07:22:03.149Z,8.80
2018-11-04T07:23:03.206Z,8.80
2018-11-04T07:24:03.173Z,8.83
2018-11-04T07:25:03.156Z,8.88
2018-11-04T07:26:03.101Z,8.94
2018-11-04T07:27:03.203Z,8.86
2018-11-04T07:28:03.127Z,8.82
2018-11-04T07:29:03.118Z,8.98
2018-11-04T07:30:03.068Z,8.94
2018-11-04T07:31:03.093Z,9.06
2018-11-04T07:32:03.210Z,8.93
2018-11-04T07:33:03.081Z,9.01
2018-11-04T07:34:03.007Z,9.03
2018-11-04T07:35:03.011Z,9.03
2018-11-04T07:36:03.043Z,9.12
2018-11-04T07:37:03.070Z,9.12
2018-11-04T07:38:03.024Z,9.15
2018-11-04T07:39:03.005Z,9.16
2018-11-04T07:40:02.995Z,9.27
2018-11-04T07:41:02.988Z,9.32
2018-11-04T07:42:02.968Z,9.26
2018-11-04T07:43:02.968Z,9.27
2018-11-04T07:44:02.931Z,9.34
2018-11-04T07:45:02.909Z,9.42
2018-11-04T07:46:02.982Z,9.41
2018-11-04T07:47:02.918Z,9.40
2018-11-04T07:48:02.938Z,9.48
2018-11-04T07:49:02.900Z,9.40
2018-11-04T07:50:02.911Z,9.50
2018-11-04T07:51:02.906Z,9.50
2018-11-04T07:52:02.881Z,9.50
2018-11-04T07:53:02.854Z,9.52
2018-11-04T07:54:02.992Z,9.50
2018-11-04T07:55:02.839Z,9.49
2018-11-04T07:56:02.860Z,9.45
2018-11-04T07:57:02.915Z,9.58
2018-11-04T07:58:02.805Z,9.58
2018-11-04T07:59:02.791Z,9.58
2018-11-04T08:00:02.825Z,9.67
2018-11-04T08:01:02.863Z,9.68
2018-11-04T08:02:02.831Z,9.65
2018-11-04T08:03:02.751Z,9.73
2018-11-04T08:04:02.815Z,9.81
2018-11-04T08:05:02.727Z,9.77
2018-11-04T08:06:02.714Z,9.77
2018-11-04T08:07:02.731Z,9.89
2018-11-04T08:08:02.700Z,9.96
2018-11-04T08:09:02.642Z,9.89
2018-11-04T08:10:02.712Z,9.88
2018-11-04T08:11:02.694Z,9.96
2018-11-04T08:12:02.647Z,9.91
2018-11-04T08:13:02.638Z,9.99
2018-11-04T08:14:02.630Z,9.99
2018-11-04T08:15:02.647Z,10.04
2018-11-04T08:16:02.621Z,10.04
2018-11-04T08:17:02.596Z,10.13
2018-11-04T08:18:02.630Z,10.10
2018-11-04T08:19:02.576Z,10.14
2018-11-04T08:20:02.571Z,10.17
2018-11-04T08:21:02.614Z,10.17
2018-11-04T08:22:02.539Z,10.13
2018-11-04T08:23:02.540Z,10.10
2018-11-04T08:24:02.519Z,10.24
2018-11-04T08:25:02.515Z,10.10
2018-11-04T08:26:02.461Z,10.20
2018-11-04T08:27:02.522Z,10.28
2018-11-04T08:28:02.474Z,10.22
2018-11-04T08:29:02.462Z,10.28
2018-11-04T08:30:02.455Z,10.28
2018-11-04T08:31:02.484Z,10.39
2018-11-04T08:32:02.447Z,10.28
2018-11-04T08:33:02.423Z,10.34
2018-11-04T08:34:02.447Z,10.39
2018-11-04T08:35:02.411Z,10.42
2018-11-04T08:36:02.432Z,10.43
2018-11-04T08:37:02.392Z,10.54
2018-11-04T08:38:02.372Z,10.63
2018-11-04T08:39:02.385Z,10.66
2018-11-04T08:40:02.470Z,10.66
2018-11-04T08:41:02.334Z,10.69
2018-11-04T08:42:02.358Z,10.75
2018-11-04T08:43:02.319Z,10.66
2018-11-04T08:44:02.296Z,10.72
2018-11-04T08:45:02.295Z,10.76
2018-11-04T08:46:02.316Z,10.72
2018-11-04T08:47:02.238Z,10.72
2018-11-04T08:48:02.262Z,10.76
2018-11-04T08:49:02.213Z,10.80
2018-11-04T08:50:02.241Z,10.70
2018-11-04T08:51:02.279Z,10.84
2018-11-04T08:52:02.218Z,10.81
2018-11-04T08:53:02.270Z,10.75
2018-11-04T08:54:02.144Z,10.81
2018-11-04T08:55:02.185Z,10.83
2018-11-04T08:56:02.223Z,10.78
2018-11-04T08:57:02.245Z,10.80
2018-11-04T08:58:02.179Z,10.87
2018-11-04T08:59:02.210Z,10.78
2018-11-04T09:00:02.172Z,10.90
2018-11-04T09:01:02.116Z,10.88
2018-11-04T09:02:02.071Z,10.88
2018-11-04T09:03:02.222Z,10.84
2018-11-04T09:04:02.086Z,10.80
2018-11-04T09:05:02.080Z,10.91
2018-11-04T09:06:02.061Z,10.91
2018-11-04T09:07:02.058Z,10.94
2018-11-04T09:08:02.004Z,10.91
2018-11-04T09:09:02.073Z,10.93
2018-11-04T09:10:02.021Z,11.03
2018-11-04T09:11:01.964Z,10.91
2018-11-04T09:12:02.025Z,11.05
2018-11-04T09:13:01.988Z,11.06
2018-11-04T09:14:02.036Z,11.09
2018-11-04T09:15:01.979Z,11.11
2018-11-04T09:16:01.978Z,11.06
2018-11-04T09:17:02.001Z,11.12
2018-11-04T09:18:01.963Z,11.13
2018-11-04T09:19:01.921Z,11.12
2018-11-04T09:20:01.915Z,11.09
2018-11-04T09:21:01.902Z,11.11
2018-11-04T09:22:02.076Z,11.13
2018-11-04T09:23:01.877Z,11.11
2018-11-04T09:24:01.873Z,11.17
2018-11-04T09:25:01.853Z,11.03
2018-11-04T09:26:01.845Z,11.20
2018-11-04T09:27:01.834Z,11.12
2018-11-04T09:28:01.882Z,11.17
2018-11-04T09:29:01.837Z,11.16
2018-11-04T09:30:01.810Z,11.13
2018-11-04T09:31:01.819Z,11.16
2018-11-04T09:32:01.793Z,11.12
2018-11-04T09:33:01.801Z,11.17
2018-11-04T09:34:01.756Z,11.21
2018-11-04T09:35:02.000Z,11.27
2018-11-04T09:36:01.819Z,11.17
2018-11-04T09:37:01.730Z,11.21
2018-11-04T09:38:01.746Z,11.27
2018-11-04T09:39:01.772Z,11.27
2018-11-04T09:40:01.716Z,11.33
2018-11-04T09:41:01.682Z,11.39
2018-11-04T09:42:01.672Z,11.39
2018-11-04T09:43:01.664Z,11.35
2018-11-04T09:44:01.690Z,11.39
2018-11-04T09:45:01.602Z,11.38
2018-11-04T09:46:01.839Z,11.39
2018-11-04T09:47:01.616Z,11.41
2018-11-04T09:48:01.634Z,11.38
2018-11-04T09:49:01.605Z,11.51
2018-11-04T09:50:01.844Z,11.41
2018-11-04T09:51:01.622Z,11.41
2018-11-04T09:52:01.688Z,11.48
2018-11-04T09:53:01.553Z,11.56
2018-11-04T09:54:01.497Z,11.54
2018-11-04T09:55:01.561Z,11.49
2018-11-04T09:56:01.491Z,11.51
2018-11-04T09:57:01.509Z,11.46
2018-11-04T09:58:01.534Z,11.49
2018-11-04T09:59:01.486Z,11.53
2018-11-04T10:00:01.477Z,11.53
2018-11-04T10:01:01.464Z,11.56
2018-11-04T10:02:01.471Z,11.53
2018-11-04T10:03:01.489Z,11.49
2018-11-04T10:04:01.384Z,11.53
2018-11-04T10:05:01.432Z,11.51
2018-11-04T10:06:01.481Z,11.60
2018-11-04T10:07:01.416Z,11.60
2018-11-04T10:08:01.425Z,11.54
2018-11-04T10:09:01.379Z,11.57
2018-11-04T10:10:01.336Z,11.63
2018-11-04T10:11:01.386Z,11.60
2018-11-04T10:12:01.369Z,11.64
2018-11-04T10:13:01.332Z,11.62
2018-11-04T10:14:01.369Z,11.56
2018-11-04T10:15:01.313Z,11.57
2018-11-04T10:16:01.347Z,11.54
2018-11-04T10:17:01.307Z,11.57
2018-11-04T10:18:01.313Z,11.56
2018-11-04T10:19:01.484Z,11.56
2018-11-04T10:20:01.542Z,11.54
2018-11-04T10:21:01.711Z,11.54
2018-11-04T10:22:01.218Z,11.53
2018-11-04T10:23:01.257Z,11.56
2018-11-04T10:24:01.216Z,11.51
2018-11-04T10:25:01.246Z,11.44
2018-11-04T10:26:01.157Z,11.62
2018-11-04T10:27:01.179Z,11.53
2018-11-04T10:28:01.243Z,11.53
2018-11-04T10:29:01.160Z,11.51
2018-11-04T10:30:01.165Z,11.59
2018-11-04T10:31:01.165Z,11.60
2018-11-04T10:32:01.094Z,11.67
2018-11-04T10:33:01.145Z,11.62
2018-11-04T10:34:01.106Z,11.60
2018-11-04T10:35:01.116Z,11.62
2018-11-04T10:36:01.081Z,11.69
2018-11-04T10:37:01.101Z,11.62
2018-11-04T10:38:01.099Z,11.74
2018-11-04T10:39:01.059Z,11.63
2018-11-04T10:40:01.046Z,11.69
2018-11-04T10:41:01.072Z,11.70
2018-11-04T10:42:01.022Z,11.78
2018-11-04T10:43:01.006Z,11.78
2018-11-04T10:44:01.037Z,11.94
2018-11-04T10:45:00.951Z,11.82
2018-11-04T10:46:00.976Z,11.94
2018-11-04T10:47:00.968Z,11.88
2018-11-04T10:48:00.957Z,11.94
2018-11-04T10:49:01.080Z,11.93
2018-11-04T10:50:00.984Z,11.94
2018-11-04T10:51:00.876Z,11.88
2018-11-04T10:52:00.921Z,11.94
2018-11-04T10:53:00.871Z,11.90
2018-11-04T10:54:00.925Z,11.85
2018-11-04T10:55:00.997Z,11.93
2018-11-04T10:56:00.861Z,11.94
2018-11-04T10:57:00.886Z,12.01
2018-11-04T10:58:00.852Z,12.07
2018-11-04T10:59:01.016Z,12.08
2018-11-04T11:00:00.821Z,12.11
2018-11-04T11:01:00.808Z,12.08
2018-11-04T11:02:00.802Z,12.15
2018-11-04T11:03:00.788Z,12.19
2018-11-04T11:04:00.827Z,12.23
2018-11-04T11:05:00.790Z,12.30
2018-11-04T11:06:00.759Z,12.15
2018-11-04T11:07:00.749Z,12.25
2018-11-04T11:08:00.745Z,12.34
2018-11-04T11:09:00.781Z,12.25
2018-11-04T11:10:00.713Z,12.33
2018-11-04T11:11:00.776Z,12.30
2018-11-04T11:12:00.694Z,12.30
2018-11-04T11:13:00.681Z,12.30
2018-11-04T11:14:00.708Z,12.29
2018-11-04T11:15:00.663Z,12.25
2018-11-04T11:16:00.658Z,12.29
2018-11-04T11:17:00.640Z,12.44
2018-11-04T11:18:00.636Z,12.49
2018-11-04T11:19:00.643Z,12.43
2018-11-04T11:20:00.611Z,12.43
2018-11-04T11:21:00.604Z,12.44
2018-11-04T11:22:00.581Z,12.40
2018-11-04T11:23:00.710Z,12.40
2018-11-04T11:24:00.601Z,12.44
2018-11-04T11:25:00.562Z,12.49
2018-11-04T11:26:00.537Z,12.52
2018-11-04T11:27:00.533Z,12.55
2018-11-04T11:28:00.520Z,12.59
2018-11-04T11:29:00.502Z,12.61
2018-11-04T11:30:00.512Z,12.41
2018-11-04T11:31:00.497Z,12.46
2018-11-04T11:32:00.479Z,12.37
2018-11-04T11:33:00.424Z,12.41
2018-11-04T11:34:00.490Z,12.44
2018-11-04T11:35:00.447Z,12.46
2018-11-04T11:36:00.453Z,12.44
2018-11-04T11:37:00.433Z,12.43
2018-11-04T11:38:00.532Z,12.51
2018-11-04T11:39:00.441Z,12.37
2018-11-04T11:40:00.374Z,12.48
2018-11-04T11:41:00.440Z,12.52
2018-11-04T11:42:00.366Z,12.48
2018-11-04T11:43:00.368Z,12.56
2018-11-04T11:44:00.389Z,12.56
2018-11-04T11:45:00.414Z,12.58
2018-11-04T11:46:00.363Z,12.69
2018-11-04T11:47:00.278Z,12.59
2018-11-04T11:48:00.330Z,12.66
2018-11-04T11:49:00.308Z,12.70
2018-11-04T11:50:00.284Z,12.79
2018-11-04T11:51:00.309Z,12.89
2018-11-04T11:52:00.365Z,12.96
2018-11-04T11:53:00.211Z,13.01
2018-11-04T11:54:00.251Z,13.07
2018-11-04T11:55:00.263Z,13.14
2018-11-04T11:56:00.217Z,13.03
2018-11-04T11:57:00.215Z,13.06
2018-11-04T11:58:00.148Z,13.03
2018-11-04T11:59:00.229Z,13.01
2018-11-04T12:00:00.174Z,12.96
2018-11-04T12:01:00.167Z,13.01
2018-11-04T12:02:00.207Z,13.09
2018-11-04T12:03:00.150Z,13.13
2018-11-04T12:04:00.162Z,13.04
2018-11-04T12:05:00.118Z,12.99
2018-11-04T12:06:00.118Z,13.13
2018-11-04T12:07:00.055Z,13.01
2018-11-04T12:08:00.107Z,13.01
2018-11-04T12:09:00.076Z,13.09
2018-11-04T12:10:00.068Z,13.13
2018-11-04T12:11:00.097Z,13.16
2018-11-04T12:12:00.050Z,13.12
2018-11-04T12:13:00.040Z,13.14
2018-11-04T12:14:00.041Z,13.13
2018-11-04T12:15:00.012Z,13.13
2018-11-04T12:16:00.068Z,13.04
2018-11-04T12:16:59.990Z,13.04
2018-11-04T12:17:59.986Z,13.03
2018-11-04T12:18:59.975Z,12.98
2018-11-04T12:19:59.959Z,13.01
2018-11-04T12:20:59.988Z,13.12
2018-11-04T12:21:59.893Z,13.19
2018-11-04T12:22:59.927Z,13.22
2018-11-04T12:23:59.916Z,13.32
2018-11-04T12:24:59.947Z,13.31
2018-11-04T12:25:59.862Z,13.41
2018-11-04T12:26:59.884Z,13.44
2018-11-04T12:27:59.885Z,13.46
2018-11-04T12:28:59.814Z,13.48
2018-11-04T12:29:59.854Z,13.51
2018-11-04T12:30:59.841Z,13.51
2018-11-04T12:31:59.794Z,13.54
2018-11-04T12:32:59.841Z,13.50
2018-11-04T12:33:59.819Z,13.57
2018-11-04T12:34:59.886Z,13.50
2018-11-04T12:35:59.791Z,13.48
2018-11-04T12:36:59.791Z,13.50
2018-11-04T12:37:59.720Z,13.43
2018-11-04T12:38:59.756Z,13.44
2018-11-04T12:39:59.789Z,13.41
2018-11-04T12:40:59.704Z,13.41
2018-11-04T12:41:59.770Z,13.46
2018-11-04T12:42:59.733Z,13.48
2018-11-04T12:43:59.698Z,13.51
2018-11-04T12:44:59.831Z,13.57
2018-11-04T12:45:59.681Z,13.47
2018-11-04T12:46:59.698Z,13.53
2018-11-04T12:47:59.688Z,13.54
2018-11-04T12:48:59.653Z,13.53
2018-11-04T12:49:59.674Z,13.61
2018-11-04T12:50:59.734Z,13.61
2018-11-04T12:51:59.618Z,13.66
2018-11-04T12:52:59.614Z,13.55
2018-11-04T12:53:59.544Z,13.57
2018-11-04T12:54:59.711Z,13.53
2018-11-04T12:55:59.575Z,13.61
2018-11-04T12:56:59.595Z,13.62
2018-11-04T12:57:59.554Z,13.66
2018-11-04T12:58:59.569Z,13.61
2018-11-04T12:59:59.526Z,13.62
2018-11-04T13:00:59.520Z,13.62
2018-11-04T13:01:59.542Z,13.65
2018-11-04T13:02:59.500Z,13.66
2018-11-04T13:03:59.494Z,13.72
2018-11-04T13:04:59.504Z,13.88
2018-11-04T13:05:59.516Z,13.84
2018-11-04T13:06:59.433Z,13.94
2018-11-04T13:07:59.485Z,13.96